LFBI/PIS METAR and TAF weather

Enter ICAO airport designator
Station Type Date Time Source
LFBI METAR 2021/10/20 07:00 UTC NOAA

LFBI 200700Z AUTO 18014KT 9999 FEW044 OVC070 16/13 Q1015 BECMG OVC014


Station Type Date Time Source
LFBI Decoded METAR 2021/10/20 07:00 UTC NOAA

Poitiers, France (LFBI) 46-35N 000-19E 120M
Oct 20, 2021 - 03:00 AM EDT / 2021.10.20 0700 UTC
Wind: from the S (180 degrees) at 16 MPH (14 KT):0
Visibility: greater than 7 mile(s):0
Sky conditions: overcast
Temperature: 60 F (16 C)
Dew Point: 55 F (13 C)
Relative Humidity: 82%
Pressure (altimeter): 29.97 in. Hg (1015 hPa)
ob: LFBI 200700Z AUTO 18014KT 9999 FEW044 OVC070 16/13 Q1015 BECMG OVC014
cycle: 7

Station Type Date Time Source
LFBI TAF 2021/10/20 06:21 UTC NOAA

TAF LFBI 200500Z 2006/2106 20015KT CAVOK
BECMG 2006/2008 OVC014
TEMPO 2009/2015 4000 -RA BKN006
BECMG 2014/2016 23015G25KT BKN030
TEMPO 2021/2023 4000 SHRA BKN030TCU PROB40
TEMPO 2020/2101 24025G40KT

Example: see airport list